createdAt,value
2018-11-23T00:00:14.930Z,23.30
2018-11-23T00:02:44.454Z,19.73
2018-11-23T00:05:12.895Z,18.43
2018-11-23T00:07:41.898Z,25.97
2018-11-23T00:10:12.061Z,28.17
2018-11-23T00:12:40.427Z,27.40
2018-11-23T00:15:11.116Z,20.87
2018-11-23T00:17:39.707Z,32.63
2018-11-23T00:20:09.950Z,33.07
2018-11-23T00:22:38.567Z,33.67
2018-11-23T00:25:08.163Z,32.10
2018-11-23T00:27:36.767Z,33.33
2018-11-23T00:30:06.595Z,27.50
2018-11-23T00:32:35.000Z,28.23
2018-11-23T00:35:03.401Z,24.20
2018-11-23T00:37:31.766Z,27.97
2018-11-23T00:40:00.214Z,31.87
2018-11-23T00:42:28.531Z,25.60
2018-11-23T00:44:56.870Z,28.80
2018-11-23T00:47:25.246Z,26.10
2018-11-23T00:49:53.604Z,21.43
2018-11-23T00:52:21.956Z,20.70
2018-11-23T00:54:50.282Z,19.77
2018-11-23T00:57:18.858Z,21.50
2018-11-23T00:59:47.271Z,20.43
2018-11-23T01:02:15.678Z,20.50
2018-11-23T01:04:44.027Z,20.30
2018-11-23T01:07:12.381Z,17.97
2018-11-23T01:09:40.719Z,19.57
2018-11-23T01:12:09.045Z,21.00
2018-11-23T01:14:37.374Z,20.43
2018-11-23T01:17:05.757Z,20.97
2018-11-23T01:19:34.123Z,21.80
2018-11-23T01:22:02.463Z,22.47
2018-11-23T01:24:30.815Z,24.10
2018-11-23T01:26:59.199Z,27.00
2018-11-23T01:29:27.564Z,25.83
2018-11-23T01:31:55.923Z,29.53
2018-11-23T01:34:24.281Z,30.10
2018-11-23T01:36:52.627Z,29.33
2018-11-23T01:39:20.963Z,32.57
2018-11-23T01:41:50.125Z,32.63
2018-11-23T01:44:18.496Z,31.77
2018-11-23T01:46:46.907Z,33.33
2018-11-23T01:49:15.247Z,25.60
2018-11-23T01:51:43.600Z,22.60
2018-11-23T01:54:11.947Z,21.33
2018-11-23T01:56:40.265Z,22.10
2018-11-23T01:59:08.663Z,21.00
2018-11-23T02:01:37.041Z,20.50
2018-11-23T02:04:05.488Z,20.97
2018-11-23T02:06:33.854Z,24.53
2018-11-23T02:09:02.365Z,22.67
2018-11-23T02:11:30.768Z,24.00
2018-11-23T02:13:59.089Z,27.47
2018-11-23T02:16:27.463Z,24.70
2018-11-23T02:18:55.834Z,24.87
2018-11-23T02:21:24.214Z,23.37
2018-11-23T02:23:52.587Z,21.93
2018-11-23T02:26:20.968Z,23.27
2018-11-23T02:28:49.353Z,24.67
2018-11-23T02:31:22.149Z,26.47
2018-11-23T02:33:51.074Z,26.83
2018-11-23T02:36:19.460Z,24.93
2018-11-23T02:38:47.812Z,24.33
2018-11-23T02:41:16.239Z,24.97
2018-11-23T02:43:44.623Z,20.23
2018-11-23T02:46:12.952Z,17.80
2018-11-23T02:48:41.270Z,18.83
2018-11-23T02:51:09.594Z,19.67
2018-11-23T02:53:37.907Z,22.00
2018-11-23T02:56:06.280Z,23.33
2018-11-23T02:58:34.627Z,23.27
2018-11-23T03:01:02.998Z,23.03
2018-11-23T03:03:31.343Z,23.60
2018-11-23T03:05:59.691Z,23.03
2018-11-23T03:08:28.020Z,24.57
2018-11-23T03:10:56.370Z,25.80
2018-11-23T03:13:24.708Z,28.30
2018-11-23T03:15:53.064Z,28.73
2018-11-23T03:18:21.387Z,29.07
2018-11-23T03:20:49.811Z,33.70
2018-11-23T03:23:20.098Z,36.20
2018-11-23T03:25:49.163Z,32.30
2018-11-23T03:28:17.511Z,39.90
2018-11-23T03:30:45.895Z,39.40
2018-11-23T03:33:14.306Z,36.30
2018-11-23T03:35:42.639Z,40.97
2018-11-23T03:38:11.014Z,46.50
2018-11-23T03:40:39.351Z,39.90
2018-11-23T03:43:07.756Z,49.90
2018-11-23T03:45:36.107Z,51.77
2018-11-23T03:48:04.487Z,41.23
2018-11-23T03:50:32.847Z,36.83
2018-11-23T03:53:01.184Z,41.17
2018-11-23T03:55:29.549Z,38.67
2018-11-23T03:57:57.853Z,42.67
2018-11-23T04:00:26.210Z,41.80
2018-11-23T04:02:55.348Z,31.30
2018-11-23T04:05:25.367Z,30.70
2018-11-23T04:07:53.724Z,39.27
2018-11-23T04:10:22.065Z,22.53
2018-11-23T04:12:50.399Z,17.73
2018-11-23T04:15:18.817Z,21.23
2018-11-23T04:17:47.139Z,15.13
2018-11-23T04:20:16.644Z,15.30
2018-11-23T04:22:45.003Z,12.40
2018-11-23T04:25:13.723Z,11.17
2018-11-23T04:27:42.693Z,11.80
2018-11-23T04:30:13.038Z,11.97
2018-11-23T04:32:41.371Z,11.37
2018-11-23T04:35:11.607Z,12.03
2018-11-23T04:37:40.065Z,18.50
2018-11-23T04:40:09.792Z,19.87
2018-11-23T04:42:38.317Z,21.73
2018-11-23T04:45:06.906Z,22.60
2018-11-23T04:47:35.419Z,23.00
2018-11-23T04:50:03.901Z,25.30
2018-11-23T04:52:32.227Z,25.63
2018-11-23T04:55:00.575Z,12.20
2018-11-23T04:57:28.929Z,14.83
2018-11-23T04:59:57.812Z,15.40
2018-11-23T05:02:26.295Z,15.03
2018-11-23T05:04:54.705Z,15.30
2018-11-23T05:07:23.070Z,13.30
2018-11-23T05:09:51.520Z,11.93
2018-11-23T05:12:20.123Z,14.33
2018-11-23T05:14:48.492Z,16.03
2018-11-23T05:17:16.858Z,12.23
2018-11-23T05:19:45.270Z,10.53
2018-11-23T05:22:13.623Z,11.87
2018-11-23T05:24:41.979Z,12.20
2018-11-23T05:27:10.299Z,11.70
2018-11-23T05:29:38.628Z,13.67
2018-11-23T05:32:06.952Z,14.73
2018-11-23T05:34:35.403Z,18.00
2018-11-23T05:37:03.826Z,15.10
2018-11-23T05:39:32.177Z,16.13
2018-11-23T05:42:00.536Z,15.20
2018-11-23T05:44:28.912Z,19.70
2018-11-23T05:46:57.228Z,22.73
2018-11-23T05:49:25.536Z,24.03
2018-11-23T05:51:53.864Z,13.00
2018-11-23T05:54:22.199Z,17.87
2018-11-23T05:56:50.554Z,21.53
2018-11-23T05:59:18.899Z,22.20
2018-11-23T06:01:47.232Z,24.13
2018-11-23T06:04:15.562Z,25.57
2018-11-23T06:06:43.906Z,28.30
2018-11-23T06:09:12.222Z,27.93
2018-11-23T06:11:40.533Z,29.95
2018-11-23T06:14:08.910Z,28.80
2018-11-23T06:16:37.246Z,28.63
2018-11-23T06:19:05.634Z,28.33
2018-11-23T06:21:34.059Z,27.03
2018-11-23T06:24:02.383Z,27.97
2018-11-23T06:26:31.229Z,28.73
2018-11-23T06:28:59.553Z,28.30
2018-11-23T06:31:27.950Z,29.30
2018-11-23T06:33:56.382Z,29.50
2018-11-23T06:36:24.713Z,28.80
2018-11-23T06:38:53.030Z,23.87
2018-11-23T06:41:21.501Z,19.00
2018-11-23T06:43:49.935Z,15.90
2018-11-23T06:46:18.280Z,17.20
2018-11-23T06:48:46.679Z,12.90
2018-11-23T06:51:15.024Z,17.70
2018-11-23T06:53:43.365Z,16.17
2018-11-23T06:56:11.679Z,16.07
2018-11-23T06:58:40.035Z,17.17
2018-11-23T07:01:08.403Z,17.80
2018-11-23T07:03:36.761Z,18.63
2018-11-23T07:06:05.135Z,16.50
2018-11-23T07:08:33.445Z,17.03
2018-11-23T07:11:03.077Z,17.40
2018-11-23T07:13:32.071Z,16.07
2018-11-23T07:16:00.482Z,14.17
2018-11-23T07:18:28.936Z,13.23
2018-11-23T07:20:57.421Z,13.77
2018-11-23T07:23:25.791Z,13.13
2018-11-23T07:25:54.235Z,12.50
2018-11-23T07:28:22.575Z,11.50
2018-11-23T07:30:50.991Z,10.97
2018-11-23T07:33:19.371Z,10.63
2018-11-23T07:35:47.790Z,14.00
2018-11-23T07:38:16.110Z,12.00
2018-11-23T07:40:55.779Z,19.90
2018-11-23T07:43:24.151Z,19.37
2018-11-23T07:45:52.541Z,22.57
2018-11-23T07:48:20.910Z,23.53
2018-11-23T07:50:49.591Z,23.80
2018-11-23T07:53:17.956Z,23.27
2018-11-23T07:55:46.299Z,22.43
2018-11-23T07:58:14.678Z,24.07
2018-11-23T08:00:43.027Z,25.00
2018-11-23T08:03:11.789Z,25.07
2018-11-23T08:05:40.138Z,24.03
2018-11-23T08:08:08.499Z,23.87
2018-11-23T08:10:38.106Z,23.97
2018-11-23T08:13:06.720Z,25.07
2018-11-23T08:15:35.616Z,23.90
2018-11-23T08:18:04.035Z,21.83
2018-11-23T08:20:32.403Z,19.80
2018-11-23T08:23:00.803Z,20.53
2018-11-23T08:25:29.159Z,21.50
2018-11-23T08:27:57.534Z,21.43
2018-11-23T08:30:28.074Z,23.07
2018-11-23T08:32:56.753Z,25.57
2018-11-23T08:35:25.167Z,25.40
2018-11-23T08:37:53.499Z,28.20
2018-11-23T08:40:23.266Z,27.47
2018-11-23T08:42:52.238Z,24.73
2018-11-23T08:45:21.979Z,26.63
2018-11-23T08:47:50.336Z,26.07
2018-11-23T08:50:27.826Z,25.73
2018-11-23T08:52:56.156Z,24.13
2018-11-23T08:55:24.706Z,24.70
2018-11-23T08:57:53.222Z,23.70
2018-11-23T09:00:23.582Z,22.93
2018-11-23T09:02:53.453Z,22.83
2018-11-23T09:05:21.955Z,22.37
2018-11-23T09:07:51.563Z,21.63
2018-11-23T09:10:23.341Z,21.00
2018-11-23T09:12:53.474Z,20.47
2018-11-23T09:15:21.928Z,20.57
2018-11-23T09:17:50.258Z,21.40
2018-11-23T09:20:18.905Z,20.63
2018-11-23T09:22:47.519Z,21.00
2018-11-23T09:25:17.322Z,20.80
2018-11-23T09:27:45.842Z,22.13
2018-11-23T09:30:19.630Z,23.00
2018-11-23T09:32:48.759Z,22.53
2018-11-23T09:35:17.158Z,23.40
2018-11-23T09:37:46.547Z,24.17
2018-11-23T09:40:16.444Z,23.50
2018-11-23T09:42:44.908Z,23.77
2018-11-23T09:45:15.698Z,21.87
2018-11-23T09:47:44.989Z,21.07
2018-11-23T09:50:14.696Z,20.90
2018-11-23T09:52:43.495Z,12.30
2018-11-23T09:55:11.963Z,17.60
2018-11-23T09:57:40.483Z,13.93
2018-11-23T10:00:11.670Z,5.00
2018-11-23T10:02:40.251Z,4.40
2018-11-23T10:05:09.460Z,3.70
2018-11-23T10:07:37.865Z,4.60
2018-11-23T10:10:07.387Z,5.73
2018-11-23T10:12:35.800Z,4.97
2018-11-23T10:15:04.520Z,4.80
2018-11-23T10:17:32.886Z,5.03
2018-11-23T10:20:01.292Z,5.17
2018-11-23T10:22:29.699Z,5.20
2018-11-23T10:24:58.033Z,5.13
2018-11-23T10:27:26.422Z,5.80
2018-11-23T10:29:55.360Z,6.37
2018-11-23T10:32:23.240Z,6.30
2018-11-23T10:34:51.663Z,5.77
2018-11-23T10:37:20.053Z,6.03
2018-11-23T10:39:48.387Z,6.50
2018-11-23T10:42:16.731Z,5.47
2018-11-23T10:44:45.181Z,6.00
2018-11-23T10:47:13.591Z,5.80
2018-11-23T10:49:42.093Z,6.00
2018-11-23T10:52:10.794Z,5.83
2018-11-23T10:54:39.168Z,6.20
2018-11-23T10:57:07.531Z,5.83
2018-11-23T10:59:35.902Z,8.13
2018-11-23T11:02:08.859Z,8.67
2018-11-23T11:04:42.721Z,15.43
2018-11-23T11:07:11.133Z,18.60
2018-11-23T11:09:39.535Z,19.10
2018-11-23T11:12:07.961Z,15.67
2018-11-23T11:14:36.331Z,17.27
2018-11-23T11:17:04.838Z,16.93
2018-11-23T11:19:33.234Z,14.97
2018-11-23T11:22:01.587Z,15.50
2018-11-23T11:24:30.063Z,14.37
2018-11-23T11:26:58.876Z,15.57
2018-11-23T11:29:27.276Z,18.27
2018-11-23T11:31:55.723Z,15.67
2018-11-23T11:34:24.378Z,14.13
2018-11-23T11:36:52.747Z,15.37
2018-11-23T11:39:21.107Z,15.50
2018-11-23T11:41:49.471Z,15.53
2018-11-23T11:44:17.852Z,15.60
2018-11-23T11:46:46.175Z,15.60
2018-11-23T11:49:14.591Z,14.80
2018-11-23T11:51:42.935Z,14.83
2018-11-23T11:54:11.295Z,15.47
2018-11-23T11:56:39.678Z,16.73
2018-11-23T11:59:08.091Z,20.27
2018-11-23T12:01:36.602Z,15.23
2018-11-23T12:04:05.242Z,15.07
2018-11-23T12:06:33.562Z,14.30
2018-11-23T12:09:01.932Z,15.77
2018-11-23T12:11:30.483Z,14.93
2018-11-23T12:13:58.832Z,15.33
2018-11-23T12:16:27.251Z,14.87
2018-11-23T12:18:55.626Z,15.90
2018-11-23T12:21:24.026Z,14.70
2018-11-23T12:23:52.379Z,15.07
2018-11-23T12:26:20.793Z,19.10
2018-11-23T12:28:49.177Z,36.00
2018-11-23T12:31:17.546Z,25.10
2018-11-23T12:33:46.096Z,25.63
2018-11-23T12:36:14.492Z,18.00
2018-11-23T12:38:43.061Z,17.10
2018-11-23T12:41:11.443Z,12.27
2018-11-23T12:43:39.802Z,14.30
2018-11-23T12:46:08.160Z,13.90
2018-11-23T12:48:36.535Z,11.90
2018-11-23T12:51:06.126Z,11.33
2018-11-23T12:53:36.940Z,10.23
2018-11-23T12:56:06.218Z,10.50
2018-11-23T12:58:34.597Z,9.60
2018-11-23T13:01:03.057Z,9.47
2018-11-23T13:03:31.491Z,9.63
2018-11-23T13:05:59.915Z,8.43
2018-11-23T13:08:28.235Z,9.20
2018-11-23T13:10:56.655Z,8.53
2018-11-23T13:13:25.022Z,8.13
2018-11-23T13:15:53.417Z,8.30
2018-11-23T13:18:21.763Z,7.93
2018-11-23T13:20:50.378Z,5.97
2018-11-23T13:23:18.727Z,5.70
2018-11-23T13:25:47.149Z,5.67
2018-11-23T13:28:15.565Z,4.30
2018-11-23T13:30:43.934Z,4.93
2018-11-23T13:33:12.371Z,4.23
2018-11-23T13:35:40.732Z,3.90
2018-11-23T13:38:09.119Z,3.73
2018-11-23T13:40:37.499Z,12.30
2018-11-23T13:43:05.990Z,4.77
2018-11-23T13:45:34.563Z,6.43
2018-11-23T13:48:03.074Z,5.07
2018-11-23T13:50:31.469Z,3.53
2018-11-23T13:53:01.140Z,3.90
2018-11-23T13:55:29.714Z,3.60
2018-11-23T13:57:58.077Z,4.70
2018-11-23T14:00:27.752Z,5.30
2018-11-23T14:02:56.200Z,7.50
2018-11-23T14:05:26.959Z,7.03
2018-11-23T14:07:56.881Z,3.87
2018-11-23T14:10:26.127Z,3.53
2018-11-23T14:12:54.511Z,3.90
2018-11-23T14:15:24.217Z,3.90
2018-11-23T14:17:53.635Z,3.50
2018-11-23T14:20:22.911Z,3.57
2018-11-23T14:22:51.380Z,4.10
2018-11-23T14:25:21.194Z,3.40
2018-11-23T14:27:50.135Z,3.33
2018-11-23T14:30:22.245Z,3.10
2018-11-23T14:32:50.939Z,3.60
2018-11-23T14:35:21.872Z,3.50
2018-11-23T14:37:51.107Z,3.93
2018-11-23T14:40:19.587Z,5.30
2018-11-23T14:42:49.023Z,9.20
2018-11-23T14:45:21.451Z,10.63
2018-11-23T14:47:50.454Z,10.33
2018-11-23T14:50:22.244Z,13.13
2018-11-23T14:52:51.574Z,8.73
2018-11-23T14:55:26.720Z,6.27
2018-11-23T14:57:55.746Z,6.33
2018-11-23T15:00:33.951Z,5.87
2018-11-23T15:03:04.553Z,4.50
2018-11-23T15:05:34.285Z,3.87
2018-11-23T15:08:02.678Z,3.77
2018-11-23T15:10:32.869Z,5.23
2018-11-23T15:13:02.203Z,3.33
2018-11-23T15:15:35.104Z,3.83
2018-11-23T15:18:03.837Z,3.90
2018-11-23T15:20:41.440Z,3.35
2018-11-23T15:23:15.717Z,3.60
2018-11-23T15:25:47.822Z,4.17
2018-11-23T15:28:18.040Z,4.90
2018-11-23T15:31:00.439Z,4.87
2018-11-23T15:33:30.009Z,5.10
2018-11-23T15:36:01.316Z,6.57
2018-11-23T15:38:33.494Z,8.10
2018-11-23T15:41:03.051Z,7.80
2018-11-23T15:43:34.302Z,8.40
2018-11-23T15:46:02.651Z,8.40
2018-11-23T15:48:31.407Z,10.17
2018-11-23T15:51:08.508Z,9.67
2018-11-23T15:53:38.237Z,10.80
2018-11-23T15:56:08.230Z,13.03
2018-11-23T15:58:36.999Z,10.60
2018-11-23T16:01:05.974Z,9.83
2018-11-23T16:03:35.961Z,11.67
2018-11-23T16:06:04.922Z,11.70
2018-11-23T16:08:35.894Z,17.47
2018-11-23T16:11:04.546Z,11.60
2018-11-23T16:13:32.920Z,8.43
2018-11-23T16:16:01.333Z,7.03
2018-11-23T16:18:29.698Z,6.13
2018-11-23T16:21:00.099Z,5.10
2018-11-23T16:23:28.790Z,11.70
2018-11-23T16:26:02.011Z,7.03
2018-11-23T16:28:31.144Z,11.10
2018-11-23T16:30:59.563Z,6.10
2018-11-23T16:33:27.928Z,4.60
2018-11-23T16:35:56.312Z,4.43
2018-11-23T16:38:24.930Z,4.53
2018-11-23T16:40:54.830Z,3.80
2018-11-23T16:43:23.339Z,3.63
2018-11-23T16:45:51.801Z,4.30
2018-11-23T16:48:20.772Z,3.50
2018-11-23T16:50:49.161Z,3.90
2018-11-23T16:53:17.555Z,3.80
2018-11-23T16:55:45.884Z,4.37
2018-11-23T16:58:15.382Z,3.43
2018-11-23T17:00:45.304Z,4.50
2018-11-23T17:03:15.275Z,4.10
2018-11-23T17:05:45.974Z,3.97
2018-11-23T17:08:14.419Z,4.20
2018-11-23T17:10:42.819Z,4.17
2018-11-23T17:13:11.327Z,4.17
2018-11-23T17:15:39.821Z,4.40
2018-11-23T17:18:09.128Z,4.30
2018-11-23T17:20:38.211Z,4.27
2018-11-23T17:23:07.655Z,4.30
2018-11-23T17:25:36.020Z,4.10
2018-11-23T17:28:06.023Z,4.00
2018-11-23T17:30:35.084Z,4.20
2018-11-23T17:33:03.588Z,4.00
2018-11-23T17:35:31.935Z,4.17
2018-11-23T17:38:00.270Z,4.13
2018-11-23T17:40:30.234Z,3.90
2018-11-23T17:42:58.598Z,3.70
2018-11-23T17:45:28.986Z,3.80
2018-11-23T17:47:57.404Z,3.63
2018-11-23T17:50:27.122Z,3.60
2018-11-23T17:52:55.676Z,3.70
2018-11-23T17:55:24.018Z,4.30
2018-11-23T17:57:53.208Z,4.87
2018-11-23T18:00:23.859Z,6.63
2018-11-23T18:02:52.855Z,7.60
2018-11-23T18:05:22.071Z,8.07
2018-11-23T18:07:50.673Z,8.83
2018-11-23T18:10:20.347Z,10.23
2018-11-23T18:12:49.067Z,10.07
2018-11-23T18:15:19.446Z,9.50
2018-11-23T18:17:48.591Z,9.67
2018-11-23T18:20:18.123Z,8.40
2018-11-23T18:22:47.048Z,7.80
2018-11-23T18:25:20.846Z,8.10
2018-11-23T18:27:49.528Z,6.77
2018-11-23T18:30:17.914Z,7.40
2018-11-23T18:32:46.243Z,7.07
2018-11-23T18:35:14.659Z,7.10
2018-11-23T18:37:43.055Z,7.27
2018-11-23T18:40:12.503Z,7.83
2018-11-23T18:42:40.856Z,8.57
2018-11-23T18:45:13.771Z,6.70
2018-11-23T18:47:42.982Z,5.77
2018-11-23T18:50:13.400Z,6.10
2018-11-23T18:52:41.963Z,5.93
2018-11-23T18:55:17.554Z,5.80
2018-11-23T18:57:39.767Z,7.07
2018-11-23T19:00:13.471Z,6.80
2018-11-23T19:02:42.698Z,6.63
2018-11-23T19:05:15.275Z,7.37
2018-11-23T19:07:43.667Z,6.97
2018-11-23T19:10:12.998Z,6.47
2018-11-23T19:12:41.422Z,6.43
2018-11-23T19:15:13.028Z,6.40
2018-11-23T19:17:41.445Z,6.87
2018-11-23T19:20:12.051Z,7.77
2018-11-23T19:22:41.042Z,7.20
2018-11-23T19:25:09.495Z,7.80
2018-11-23T19:27:37.890Z,7.00
2018-11-23T19:30:08.968Z,6.40
2018-11-23T19:32:37.364Z,6.37
2018-11-23T19:35:06.390Z,6.27
2018-11-23T19:37:34.781Z,9.77
2018-11-23T19:40:03.616Z,6.87
2018-11-23T19:42:32.035Z,7.90
2018-11-23T19:45:00.380Z,6.93
2018-11-23T19:47:28.726Z,5.50
2018-11-23T19:49:57.207Z,6.03
2018-11-23T19:52:25.623Z,7.70
2018-11-23T19:54:54.053Z,6.23
2018-11-23T19:57:22.501Z,7.10
2018-11-23T19:59:50.893Z,7.70
2018-11-23T20:02:19.934Z,11.77
2018-11-23T20:04:47.843Z,15.60
2018-11-23T20:07:16.319Z,18.00
2018-11-23T20:09:44.705Z,20.97
2018-11-23T20:12:13.123Z,22.13
2018-11-23T20:14:41.464Z,24.87
2018-11-23T20:17:09.843Z,25.77
2018-11-23T20:19:38.276Z,27.27
2018-11-23T20:22:06.691Z,25.23
2018-11-23T20:24:35.224Z,27.37
2018-11-23T20:27:03.620Z,28.30
2018-11-23T20:29:32.012Z,29.63
2018-11-23T20:32:00.835Z,24.87
2018-11-23T20:34:29.512Z,22.77
2018-11-23T20:36:57.859Z,21.67
2018-11-23T20:39:26.262Z,23.87
2018-11-23T20:41:56.279Z,24.17
2018-11-23T20:44:24.609Z,31.20
2018-11-23T20:46:53.041Z,23.17
2018-11-23T20:49:21.424Z,47.93
2018-11-23T20:51:49.894Z,20.10
2018-11-23T20:54:18.578Z,33.33
2018-11-23T20:56:46.944Z,18.23
2018-11-23T20:59:15.375Z,34.47
2018-11-23T21:01:43.809Z,35.27
2018-11-23T21:04:12.266Z,31.37
2018-11-23T21:06:40.638Z,20.50
2018-11-23T21:09:09.748Z,30.40
2018-11-23T21:11:38.183Z,25.70
2018-11-23T21:14:06.554Z,28.67
2018-11-23T21:16:35.865Z,29.87
2018-11-23T21:19:09.058Z,29.37
2018-11-23T21:21:38.098Z,26.50
2018-11-23T21:24:06.706Z,27.60
2018-11-23T21:26:35.986Z,28.70
2018-11-23T21:29:05.238Z,27.70
2018-11-23T21:31:33.754Z,27.47
2018-11-23T21:34:02.341Z,29.87
2018-11-23T21:36:30.843Z,30.07
2018-11-23T21:38:59.363Z,28.90
2018-11-23T21:41:29.705Z,28.27
2018-11-23T21:43:56.303Z,24.33
2018-11-23T21:46:24.818Z,29.20
2018-11-23T21:48:53.279Z,25.90
2018-11-23T21:51:21.846Z,26.30
2018-11-23T21:53:50.310Z,26.17
2018-11-23T21:56:20.026Z,24.57
2018-11-23T21:58:48.582Z,25.23
2018-11-23T22:01:16.974Z,29.17
2018-11-23T22:03:48.459Z,28.37
2018-11-23T22:06:16.968Z,29.77
2018-11-23T22:08:45.408Z,26.57
2018-11-23T22:11:14.079Z,25.87
2018-11-23T22:13:42.941Z,28.93
2018-11-23T22:16:11.437Z,26.17
2018-11-23T22:18:40.068Z,27.70
2018-11-23T22:21:08.699Z,23.63
2018-11-23T22:23:37.076Z,23.93
2018-11-23T22:26:05.671Z,21.30
2018-11-23T22:28:34.103Z,22.83
2018-11-23T22:31:02.549Z,21.27
2018-11-23T22:33:30.996Z,20.73
2018-11-23T22:35:59.513Z,18.87
2018-11-23T22:38:28.667Z,19.37
2018-11-23T22:40:57.146Z,22.20
2018-11-23T22:43:25.571Z,22.33
2018-11-23T22:45:53.935Z,19.63
2018-11-23T22:48:22.256Z,20.03
2018-11-23T22:50:50.587Z,22.90
2018-11-23T22:53:19.028Z,23.83
2018-11-23T22:55:47.384Z,24.03
2018-11-23T22:58:15.740Z,21.30
2018-11-23T23:00:44.484Z,21.63
2018-11-23T23:03:13.404Z,22.53
2018-11-23T23:05:42.615Z,20.27
2018-11-23T23:08:10.324Z,20.07
2018-11-23T23:10:38.727Z,21.50
2018-11-23T23:13:07.075Z,21.67
2018-11-23T23:15:35.453Z,21.10
2018-11-23T23:18:03.898Z,18.93
2018-11-23T23:20:32.251Z,19.40
2018-11-23T23:23:00.615Z,17.33
2018-11-23T23:25:28.975Z,17.17
2018-11-23T23:27:57.431Z,18.10
2018-11-23T23:30:25.768Z,20.13
2018-11-23T23:32:54.189Z,19.83
2018-11-23T23:35:22.676Z,16.33
2018-11-23T23:37:51.065Z,15.13
2018-11-23T23:40:19.637Z,16.13
2018-11-23T23:42:48.667Z,15.57
2018-11-23T23:45:17.796Z,15.87
2018-11-23T23:47:46.249Z,17.73
2018-11-23T23:50:16.580Z,16.87
2018-11-23T23:52:44.919Z,20.20
2018-11-23T23:55:13.393Z,16.47
2018-11-23T23:57:44.227Z,15.90
